Time;durP1;ratioP1;P1;durP2;ratioP2;P2;SDS_P1;SDS_P2;PMS_P1;PMS_P2;Temp;Humidity;BMP_temperature;BMP_pressure;BME280_temperature;BME280_humidity;BME280_pressure;Samples;Min_cycle;Max_cycle;Signal;HPM_P1;HPM_P2
2021/12/12 00:02:25;;;;;;;;;13.25;12.75;;;;;7.90;77.43;101638.63;5038192;28;45320;-78
2021/12/12 00:04:53;;;;;;;;;26.00;24.00;;;;;7.84;78.84;101635.81;5039435;28;47063;-79
2021/12/12 00:07:24;;;;;;;;;22.50;20.50;;;;;7.74;79.40;101620.63;5032294;28;45353;-81
2021/12/12 00:09:55;;;;;;;;;18.50;15.00;;;;;7.83;77.93;101644.53;5038868;28;45390;-82
2021/12/12 00:12:25;;;;;;;;;23.75;21.00;;;;;7.80;79.52;101626.06;5038614;28;45353;-80
2021/12/12 00:14:51;;;;;;;;;27.75;24.75;;;;;7.55;79.83;101585.03;5045716;28;46178;-79
2021/12/12 00:17:17;;;;;;;;;20.50;18.75;;;;;7.70;78.33;101600.38;5039394;28;45456;-82
2021/12/12 00:19:43;;;;;;;;;10.75;10.75;;;;;7.66;78.45;101598.50;5038904;28;45376;-81
2021/12/12 00:22:12;;;;;;;;;29.75;25.75;;;;;7.72;81.43;101620.59;5039478;28;45387;-79
2021/12/12 00:24:38;;;;;;;;;25.00;20.50;;;;;6.75;80.50;101466.16;5039330;28;46078;-79
2021/12/12 00:27:05;;;;;;;;;33.25;23.25;;;;;7.63;81.23;101619.34;5038960;28;45239;-78
2021/12/12 00:29:31;;;;;;;;;22.50;21.75;;;;;7.44;81.30;101581.16;5036747;28;45438;-79
2021/12/12 00:32:00;;;;;;;;;26.50;24.25;;;;;7.57;82.54;101617.44;5038764;28;45430;-82
2021/12/12 00:34:29;;;;;;;;;26.25;22.50;;;;;7.61;82.50;101626.28;5038355;28;48298;-81
2021/12/12 00:36:55;;;;;;;;;20.75;18.25;;;;;7.56;80.90;101606.91;5038304;28;45291;-80
2021/12/12 00:39:26;;;;;;;;;25.25;23.00;;;;;7.09;83.34;101538.94;5038667;28;45274;-79
2021/12/12 00:42:02;;;;;;;;;29.75;24.00;;;;;7.33;83.32;101579.91;5038743;28;45474;-78
2021/12/12 00:44:30;;;;;;;;;19.75;12.75;;;;;6.99;82.50;101533.34;5038042;28;45492;-80
2021/12/12 00:47:00;;;;;;;;;21.75;20.00;;;;;7.43;84.30;101610.81;5038436;28;45264;-77
2021/12/12 00:49:26;;;;;;;;;16.25;15.50;;;;;7.41;83.32;101612.50;5038516;28;45528;-80
2021/12/12 00:51:52;;;;;;;;;24.25;22.25;;;;;7.43;83.86;101609.09;5038281;28;45397;-81
2021/12/12 00:54:19;;;;;;;;;28.25;21.75;;;;;7.08;83.83;101552.88;5037925;28;46273;-80
2021/12/12 00:56:46;;;;;;;;;23.75;20.00;;;;;7.38;84.25;101605.44;5038434;28;45397;-79
2021/12/12 00:59:12;;;;;;;;;24.75;22.75;;;;;6.71;84.78;101515.75;5038592;28;45413;-78
2021/12/12 01:01:44;;;;;;;;;20.75;19.50;;;;;7.38;84.41;101607.19;5037927;28;45428;-80
2021/12/12 01:04:18;;;;;;;;;25.00;21.00;;;;;7.36;85.31;101601.00;5037211;28;47235;-80
2021/12/12 01:06:45;;;;;;;;;15.25;15.00;;;;;7.35;84.57;101600.09;5041282;28;45239;-79
2021/12/12 01:09:17;;;;;;;;;27.75;23.00;;;;;7.26;85.42;101577.91;5037017;28;45491;-79
2021/12/12 01:11:46;;;;;;;;;25.50;20.50;;;;;7.23;84.83;101575.19;5036541;28;45449;-79
2021/12/12 01:14:17;;;;;;;;;21.00;18.50;;;;;7.38;85.01;101607.19;5037354;28;45497;-79
2021/12/12 01:16:47;;;;;;;;;22.00;20.50;;;;;7.39;84.97;101606.34;5037956;28;45342;-79
2021/12/12 01:19:16;;;;;;;;;21.25;19.00;;;;;7.18;85.50;101569.81;5041820;28;45459;-78
2021/12/12 01:21:52;;;;;;;;;18.50;18.25;;;;;7.39;85.59;101611.56;5037344;28;45433;-79
2021/12/12 01:24:42;;;;;;;;;17.25;17.25;;;;;7.39;85.78;101606.34;5021817;28;46594;-79
2021/12/12 01:27:10;;;;;;;;;16.25;11.25;;;;;7.40;85.34;101606.38;5037679;28;45458;-79
2021/12/12 01:29:36;;;;;;;;;20.00;17.00;;;;;7.38;85.94;101610.69;5037232;28;45454;-81
2021/12/12 01:32:04;;;;;;;;;17.50;13.25;;;;;7.34;85.77;101600.91;5037084;28;45366;-79
2021/12/12 01:34:31;;;;;;;;;16.50;15.00;;;;;7.42;85.31;101616.91;5037140;28;45993;-83
2021/12/12 01:39:57;;;;;;;;;20.50;19.00;;;;;7.19;86.03;101568.97;5038448;28;45271;-82
2021/12/12 01:42:29;;;;;;;;;16.75;16.75;;;;;7.50;85.32;101620.69;5036659;28;45374;-81
2021/12/12 01:45:07;;;;;;;;;16.50;15.25;;;;;7.51;85.96;101622.47;5038122;28;46780;-79
2021/12/12 01:47:46;;;;;;;;;15.25;13.50;;;;;7.36;85.91;101583.53;5036587;28;45980;-79
2021/12/12 01:50:43;;;;;;;;;17.25;16.50;;;;;7.56;86.18;101630.50;5053336;28;45277;-78
2021/12/12 01:53:12;;;;;;;;;13.00;13.00;;;;;7.56;85.62;101627.88;5036017;28;45739;-78
2021/12/12 01:55:53;;;;;;;;;13.00;13.00;;;;;7.58;86.33;101619.22;5037607;28;46552;-81
2021/12/12 01:58:24;;;;;;;;;11.50;11.25;;;;;7.58;86.33;101621.84;5037688;28;45437;-79
2021/12/12 02:01:00;;;;;;;;;13.25;12.25;;;;;7.60;85.98;101625.41;5037772;28;45438;-78
2021/12/12 02:03:31;;;;;;;;;14.75;14.75;;;;;7.41;86.06;101588.91;5036810;28;45471;-79
2021/12/12 02:05:59;;;;;;;;;15.00;13.00;;;;;7.65;85.58;101641.31;5037521;28;45444;-80
2021/12/12 02:08:27;;;;;;;;;14.50;14.50;;;;;7.45;86.79;101589.94;5046201;28;45444;-78
2021/12/12 02:10:56;;;;;;;;;15.00;12.50;;;;;7.62;86.45;101628.06;5031903;28;45394;-79
2021/12/12 02:13:24;;;;;;;;;11.00;9.75;;;;;7.69;86.78;101641.44;5036641;28;45501;-81
2021/12/12 02:15:52;;;;;;;;;11.50;11.00;;;;;7.57;86.22;101620.06;5038086;28;45366;-80
2021/12/12 02:18:28;;;;;;;;;13.00;13.00;;;;;7.43;87.02;101592.47;5036580;28;45881;-81
2021/12/12 02:21:10;;;;;;;;;10.00;10.00;;;;;7.70;86.69;101644.97;5037985;28;45330;-81
2021/12/12 02:37:11;;;;;;;;;9.50;9.50;;;;;7.79;85.96;101650.50;5021518;28;45313;-78
2021/12/12 02:39:39;;;;;;;;;11.75;11.25;;;;;7.61;86.97;101623.66;5037184;28;45245;-79
2021/12/12 02:42:09;;;;;;;;;11.00;10.50;;;;;7.73;86.32;101639.84;5037434;28;45439;-81
2021/12/12 02:44:37;;;;;;;;;11.50;10.75;;;;;7.65;85.99;101629.09;5034642;28;45216;-79
2021/12/12 02:47:13;;;;;;;;;11.00;11.00;;;;;7.86;87.04;101655.13;5036290;28;45967;-80
2021/12/12 02:49:56;;;;;;;;;9.25;9.25;;;;;7.86;86.61;101655.13;5036638;28;45472;-80
2021/12/12 02:52:28;;;;;;;;;14.50;13.25;;;;;7.80;86.51;101647.03;5036335;28;45299;-80
2021/12/12 02:55:00;;;;;;;;;9.50;9.50;;;;;7.88;86.96;101666.56;5036407;28;45499;-81
2021/12/12 02:57:25;;;;;;;;;10.75;10.75;;;;;7.87;86.55;101662.16;5037095;28;45637;-81
2021/12/12 02:59:51;;;;;;;;;11.25;10.00;;;;;7.90;87.44;101666.59;5035846;28;45444;-80
2021/12/12 03:02:24;;;;;;;;;11.00;11.00;;;;;7.94;86.26;101664.16;5036082;28;45524;-80
2021/12/12 03:04:51;;;;;;;;;10.75;10.75;;;;;7.66;86.04;101622.09;5036343;28;45357;-80
2021/12/12 03:07:16;;;;;;;;;11.50;9.00;;;;;7.72;86.56;101624.91;5036441;28;46581;-80
2021/12/12 03:09:46;;;;;;;;;10.50;10.25;;;;;7.88;86.56;101656.06;5036922;28;45327;-80
2021/12/12 03:12:16;;;;;;;;;9.50;9.50;;;;;7.85;86.61;101650.72;5036677;28;45300;-78
2021/12/12 03:14:44;;;;;;;;;10.75;10.75;;;;;7.89;86.86;101657.84;5036773;28;45445;-79
2021/12/12 03:17:19;;;;;;;;;11.50;11.00;;;;;7.94;86.43;101666.78;5038355;28;46781;-78
2021/12/12 03:19:47;;;;;;;;;7.50;7.50;;;;;7.79;86.87;101633.88;5037141;28;45208;-80
2021/12/12 03:22:13;;;;;;;;;12.00;9.25;;;;;7.78;86.93;101633.00;5041059;28;45333;-79
2021/12/12 03:24:39;;;;;;;;;8.50;8.50;;;;;7.44;86.77;101568.03;5037203;28;45473;-80
2021/12/12 03:27:06;;;;;;;;;10.25;10.25;;;;;8.01;86.82;101670.50;5036492;28;46591;-83
2021/12/12 03:29:33;;;;;;;;;7.50;7.50;;;;;7.29;87.37;101546.59;5036153;28;45464;-78
2021/12/12 03:32:05;;;;;;;;;11.75;10.00;;;;;8.04;87.20;101675.81;5035035;28;45301;-81
2021/12/12 03:34:34;;;;;;;;;12.50;11.50;;;;;7.96;87.09;101649.34;5035009;28;45600;-80
2021/12/12 03:37:00;;;;;;;;;9.25;9.25;;;;;8.06;86.67;101671.50;5036036;28;46355;-79
2021/12/12 03:39:31;;;;;;;;;8.75;8.50;;;;;7.64;86.58;101592.31;5036237;28;45460;-82
2021/12/12 03:42:00;;;;;;;;;11.00;11.00;;;;;7.81;87.00;101621.69;5036301;28;45449;-81
2021/12/12 03:44:30;;;;;;;;;7.75;7.25;;;;;8.09;86.68;101661.09;5035710;28;45382;-79
2021/12/12 03:47:00;;;;;;;;;9.50;9.50;;;;;8.10;86.98;101659.41;5035366;28;46100;-80
2021/12/12 03:49:26;;;;;;;;;8.25;7.00;;;;;7.70;86.87;101589.88;5036432;28;45382;-81
2021/12/12 03:51:52;;;;;;;;;10.50;10.50;;;;;8.06;86.56;101657.50;5036713;28;45256;-80
2021/12/12 03:54:18;;;;;;;;;10.50;10.50;;;;;8.13;87.38;101663.00;5035549;28;45466;-78
2021/12/12 03:56:45;;;;;;;;;10.25;7.25;;;;;8.13;86.61;101668.25;5037343;28;47940;-78
2021/12/12 03:59:12;;;;;;;;;11.00;10.00;;;;;8.11;87.36;101664.69;5038137;28;45477;-78
2021/12/12 04:01:45;;;;;;;;;9.25;9.25;;;;;8.13;87.57;101668.25;5038360;28;45333;-79
2021/12/12 04:04:15;;;;;;;;;10.00;8.25;;;;;8.20;86.80;101671.97;5037660;28;45409;-79
2021/12/12 04:06:41;;;;;;;;;9.25;8.25;;;;;7.98;87.27;101618.78;5039159;28;45253;-79
2021/12/12 04:09:10;;;;;;;;;12.00;11.25;;;;;8.21;86.83;101661.53;5038555;28;45309;-80
2021/12/12 04:11:43;;;;;;;;;9.75;7.75;;;;;8.08;86.65;101640.97;5040244;28;45374;-81
2021/12/12 04:14:11;;;;;;;;;9.50;9.25;;;;;8.26;87.00;101672.16;5039094;28;45772;-80
2021/12/12 04:16:39;;;;;;;;;9.50;9.00;;;;;8.28;87.45;101673.09;5039037;28;46043;-81
2021/12/12 04:19:06;;;;;;;;;9.00;7.25;;;;;8.32;86.30;101674.97;5039293;28;45257;-79
2021/12/12 04:21:33;;;;;;;;;10.00;9.00;;;;;8.33;86.37;101675.88;5038585;28;45536;-81
2021/12/12 04:23:59;;;;;;;;;6.00;6.00;;;;;8.33;87.06;101682.00;5039547;28;45188;-81
2021/12/12 04:26:35;;;;;;;;;13.25;12.00;;;;;8.37;86.89;101681.28;5038931;28;45369;-80
2021/12/12 04:29:15;;;;;;;;;14.75;12.00;;;;;8.26;86.33;101674.78;5038215;28;45434;-80
2021/12/12 04:31:44;;;;;;;;;16.00;12.00;;;;;8.37;86.71;101691.78;5038694;28;45642;-79
2021/12/12 04:34:10;;;;;;;;;13.25;9.50;;;;;8.39;86.57;101692.75;5037410;28;45327;-78
2021/12/12 04:36:46;;;;;;;;;11.50;11.50;;;;;8.43;86.26;101696.34;5039090;28;46158;-76
2021/12/12 04:39:16;;;;;;;;;17.75;12.75;;;;;8.33;86.33;101683.75;5038650;28;45392;-79
2021/12/12 04:41:45;;;;;;;;;12.50;11.00;;;;;8.45;85.76;101692.91;5039382;28;45226;-80
2021/12/12 04:44:11;;;;;;;;;14.50;14.50;;;;;8.43;85.93;101689.38;5039203;28;45393;-79
2021/12/12 04:49:55;;;;;;;;;16.75;12.25;;;;;8.24;86.23;101656.34;5041386;28;45160;-79
2021/12/12 04:52:28;;;;;;;;;16.00;13.00;;;;;8.48;86.47;101690.41;5049124;28;45141;-79
2021/12/12 04:55:04;;;;;;;;;16.25;13.50;;;;;8.20;86.11;101638.75;5048777;28;45322;-79
2021/12/12 04:57:38;;;;;;;;;14.50;12.75;;;;;8.51;86.66;101697.47;5041581;28;46303;-78
2021/12/12 05:00:09;;;;;;;;;6.50;6.50;;;;;8.50;86.24;101707.09;5041319;28;45241;-78
2021/12/12 05:02:57;;;;;;;;;17.25;16.25;;;;;8.50;86.63;101708.84;5038809;28;45320;-79
2021/12/12 05:05:28;;;;;;;;;15.00;14.00;;;;;8.49;87.16;101707.06;5038872;28;45469;-79
2021/12/12 05:08:25;;;;;;;;;15.50;14.25;;;;;8.11;85.81;101638.47;5037385;28;46182;-79
2021/12/12 05:10:58;;;;;;;;;14.25;14.25;;;;;8.44;86.88;101699.03;5039168;28;45330;-78
2021/12/12 05:13:32;;;;;;;;;14.50;13.00;;;;;8.25;86.90;101670.38;5037327;28;45804;-79
2021/12/12 05:16:07;;;;;;;;;14.75;11.00;;;;;8.41;87.16;101693.69;5038586;28;45352;-78
2021/12/12 05:18:39;;;;;;;;;18.00;16.50;;;;;8.39;87.42;101686.59;5037351;28;46181;-79
2021/12/12 05:21:12;;;;;;;;;13.25;12.00;;;;;8.53;87.24;101709.81;5038458;28;46794;-79
2021/12/12 05:23:42;;;;;;;;;18.00;16.25;;;;;8.57;86.47;101716.97;5038767;28;45464;-80
2021/12/12 05:26:15;;;;;;;;;16.50;16.25;;;;;8.56;87.45;101715.19;5039839;28;45337;-80
2021/12/12 05:28:48;;;;;;;;;11.50;11.50;;;;;8.56;87.01;101719.50;5028174;28;45210;-79
2021/12/12 05:31:16;;;;;;;;;15.50;14.75;;;;;8.57;87.06;101723.94;5038727;28;45276;-80
2021/12/12 05:33:43;;;;;;;;;13.50;12.25;;;;;8.54;87.27;101715.94;5038546;28;45273;-80
2021/12/12 05:36:11;;;;;;;;;12.25;12.25;;;;;8.59;87.09;101731.88;5039065;28;45410;-81
2021/12/12 05:38:38;;;;;;;;;16.00;16.00;;;;;8.61;86.94;101728.44;5041602;28;46439;-79
2021/12/12 05:41:05;;;;;;;;;16.00;14.75;;;;;8.14;86.57;101643.78;5038061;28;45341;-80
2021/12/12 05:43:30;;;;;;;;;16.25;16.00;;;;;8.37;87.09;101685.66;5037930;28;45267;-80
2021/12/12 05:45:57;;;;;;;;;20.25;17.50;;;;;8.69;86.52;101731.31;5038338;28;45441;-78
2021/12/12 05:48:22;;;;;;;;;19.00;17.00;;;;;8.45;86.84;101695.53;5037120;28;45394;-79
2021/12/12 05:50:50;;;;;;;;;17.75;17.00;;;;;8.73;86.70;101735.81;5037453;28;45346;-79
2021/12/12 05:53:17;;;;;;;;;18.00;16.75;;;;;8.74;86.09;101734.94;5037752;28;45290;-80
2021/12/12 05:55:45;;;;;;;;;17.50;17.50;;;;;8.75;86.67;101736.75;5038322;28;45451;-78
2021/12/12 05:58:13;;;;;;;;;22.50;17.50;;;;;8.78;86.78;101736.84;5037460;28;46487;-79
2021/12/12 06:00:47;;;;;;;;;20.75;18.75;;;;;8.77;86.85;101742.94;5037447;28;45413;-80
2021/12/12 06:03:18;;;;;;;;;13.50;11.25;;;;;8.78;86.61;101742.09;5036933;28;45473;-77
2021/12/12 06:05:44;;;;;;;;;22.75;19.00;;;;;8.51;86.50;101693.13;5037921;28;45230;-78
2021/12/12 06:08:11;;;;;;;;;16.50;16.25;;;;;8.78;86.44;101731.59;5037071;28;45453;-78
2021/12/12 06:10:39;;;;;;;;;22.25;19.50;;;;;8.29;86.63;101652.16;5037468;28;45309;-78
2021/12/12 06:13:11;;;;;;;;;21.75;17.75;;;;;8.78;86.93;101739.47;5037919;28;45560;-79
2021/12/12 06:15:39;;;;;;;;;18.00;15.75;;;;;8.09;86.41;101616.50;5038631;28;45467;-79
2021/12/12 06:18:07;;;;;;;;;25.50;18.75;;;;;8.76;86.96;101757.81;5032360;28;46519;-80
2021/12/12 06:20:33;;;;;;;;;18.50;18.00;;;;;8.56;87.17;101730.94;5036287;28;45525;-80
2021/12/12 06:22:59;;;;;;;;;21.00;17.25;;;;;8.70;86.97;101756.72;5037854;28;45770;-80
2021/12/12 06:25:25;;;;;;;;;18.00;14.75;;;;;8.70;86.43;101746.22;5038137;28;45338;-77
2021/12/12 06:27:51;;;;;;;;;16.75;16.25;;;;;8.82;87.10;101770.25;5035994;28;45481;-78
2021/12/12 06:30:20;;;;;;;;;18.75;17.00;;;;;8.56;87.29;101727.38;5037084;28;45827;-79
2021/12/12 06:32:47;;;;;;;;;17.50;13.25;;;;;8.75;87.71;101755.16;5036866;28;45531;-78
2021/12/12 06:35:14;;;;;;;;;18.00;15.00;;;;;8.71;87.22;101751.53;5037994;28;45342;-77
2021/12/12 06:37:42;;;;;;;;;15.75;14.75;;;;;8.86;87.23;101772.13;5037474;28;45544;-80
2021/12/12 06:40:12;;;;;;;;;16.25;16.25;;;;;8.88;87.27;101780.94;5036969;28;45314;-78
2021/12/12 06:42:37;;;;;;;;;19.50;18.75;;;;;8.86;87.50;101780.03;5037012;28;45433;-79
2021/12/12 06:45:06;;;;;;;;;14.50;14.50;;;;;8.92;87.21;101792.44;5037303;28;45275;-79
2021/12/12 06:47:33;;;;;;;;;16.00;16.00;;;;;8.92;87.25;101790.69;5036608;28;48630;-79
2021/12/12 06:49:59;;;;;;;;;14.00;14.00;;;;;8.95;87.30;101789.91;5037415;28;45268;-82
2021/12/12 06:52:26;;;;;;;;;15.50;13.00;;;;;8.96;86.93;101784.72;5036161;28;45535;-80
2021/12/12 06:54:53;;;;;;;;;12.00;10.50;;;;;8.96;86.98;101789.97;5036943;28;45502;-79
2021/12/12 06:57:19;;;;;;;;;16.50;16.50;;;;;9.00;86.80;101798.81;5037199;28;45409;-78
2021/12/12 06:59:47;;;;;;;;;16.75;14.50;;;;;8.98;86.93;101793.53;5035780;28;45504;-77
2021/12/12 07:02:13;;;;;;;;;13.50;13.25;;;;;8.74;87.18;101751.59;5036468;28;45279;-78
2021/12/12 07:04:40;;;;;;;;;15.75;12.75;;;;;8.87;86.53;101773.91;5036605;28;45567;-79
2021/12/12 07:07:10;;;;;;;;;19.25;18.25;;;;;9.10;86.57;101812.28;5037204;28;46323;-79
2021/12/12 07:09:38;;;;;;;;;14.75;13.75;;;;;9.05;86.37;101807.75;5036876;28;45358;-79
2021/12/12 07:12:08;;;;;;;;;12.00;11.00;;;;;9.15;86.67;101825.59;5036678;28;45412;-80
2021/12/12 07:14:35;;;;;;;;;14.00;12.25;;;;;9.09;86.54;101809.63;5035973;28;45474;-78
2021/12/12 07:17:01;;;;;;;;;10.50;10.50;;;;;9.08;86.63;101798.22;5036913;28;45358;-79
2021/12/12 07:19:27;;;;;;;;;19.75;16.50;;;;;9.18;86.58;101825.66;5046940;28;45397;-79
2021/12/12 07:21:53;;;;;;;;;11.75;11.75;;;;;8.99;86.02;101776.91;5055617;28;45689;-79
2021/12/12 07:24:20;;;;;;;;;12.75;11.25;;;;;9.21;86.80;101817.88;5040536;28;45365;-79
2021/12/12 07:26:45;;;;;;;;;13.25;13.25;;;;;9.22;86.61;101821.41;5036465;28;46202;-79
2021/12/12 07:29:11;;;;;;;;;12.00;12.00;;;;;9.22;86.84;101821.41;5036301;28;45751;-79
2021/12/12 07:31:40;;;;;;;;;11.00;11.00;;;;;9.26;86.64;101826.78;5038854;28;45437;-79
2021/12/12 07:34:10;;;;;;;;;12.75;12.75;;;;;9.28;86.60;101824.22;5038569;28;45398;-79
2021/12/12 07:36:39;;;;;;;;;9.00;7.25;;;;;9.29;86.23;101824.25;5040184;28;46004;-80
2021/12/12 07:39:10;;;;;;;;;14.75;13.00;;;;;9.31;86.74;101827.84;5039940;28;45168;-80
2021/12/12 07:41:37;;;;;;;;;15.50;13.00;;;;;9.30;85.85;101817.25;5039973;28;45449;-80
2021/12/12 07:44:06;;;;;;;;;12.00;8.25;;;;;8.04;86.20;101610.22;5037940;28;45384;-81
2021/12/12 07:46:34;;;;;;;;;14.00;11.75;;;;;9.07;86.48;101791.19;5038502;28;47012;-80
2021/12/12 07:49:00;;;;;;;;;11.00;11.00;;;;;8.84;86.51;101752.78;5040324;28;45576;-80
2021/12/12 07:51:26;;;;;;;;;11.50;10.25;;;;;9.33;85.87;101827.88;5035730;28;45598;-76
2021/12/12 07:53:57;;;;;;;;;10.50;10.00;;;;;9.35;86.30;101829.69;5036237;28;45404;-79
2021/12/12 07:56:26;;;;;;;;;13.50;13.50;;;;;9.26;86.24;101821.53;5038022;28;45422;-78
2021/12/12 07:58:52;;;;;;;;;10.25;10.25;;;;;9.30;86.49;101833.03;5038409;28;46416;-79
2021/12/12 08:01:18;;;;;;;;;13.00;10.00;;;;;9.37;86.68;101833.25;5039046;28;45499;-78
2021/12/12 08:03:45;;;;;;;;;8.50;8.50;;;;;9.37;86.47;101846.41;5035937;28;45471;-77
2021/12/12 08:06:15;;;;;;;;;16.00;11.75;;;;;8.80;86.28;101735.16;5036807;28;46088;-78
2021/12/12 08:08:41;;;;;;;;;14.00;11.00;;;;;9.24;86.17;101804.84;5038192;28;45554;-77
2021/12/12 08:11:08;;;;;;;;;10.50;8.50;;;;;9.44;86.09;101842.25;5044580;28;45420;-77
2021/12/12 08:13:35;;;;;;;;;8.25;8.25;;;;;9.46;86.34;101845.78;5043309;28;45386;-80
2021/12/12 08:16:05;;;;;;;;;8.75;8.75;;;;;9.31;86.15;101816.44;5035779;28;45993;-76
2021/12/12 08:18:32;;;;;;;;;12.50;11.25;;;;;9.53;86.30;101853.03;5036315;28;45423;-80
2021/12/12 08:21:00;;;;;;;;;9.50;9.00;;;;;9.19;86.19;101795.91;5034851;28;45462;-79
2021/12/12 08:23:25;;;;;;;;;12.75;10.25;;;;;9.54;86.11;101846.91;5035346;28;45504;-80
2021/12/12 08:25:54;;;;;;;;;13.00;10.75;;;;;9.48;86.01;101828.31;5036521;28;46063;-80
2021/12/12 08:28:21;;;;;;;;;13.00;11.00;;;;;9.45;86.11;101822.09;5032221;28;46188;-79
2021/12/12 08:30:49;;;;;;;;;9.50;8.25;;;;;9.56;85.19;101833.81;5036396;28;45380;-77
2021/12/12 08:33:15;;;;;;;;;9.00;9.00;;;;;8.92;85.56;101730.25;5035583;28;45469;-79
2021/12/12 08:35:42;;;;;;;;;13.75;11.75;;;;;9.49;85.83;101814.31;5037377;28;45544;-81
2021/12/12 08:38:10;;;;;;;;;12.50;12.00;;;;;8.96;85.29;101726.88;5034051;28;45560;-79
2021/12/12 08:40:47;;;;;;;;;13.00;11.00;;;;;9.05;85.26;101728.91;5035725;28;45396;-78
2021/12/12 08:43:16;;;;;;;;;11.50;10.50;;;;;9.38;85.05;101792.06;5033885;28;45495;-79
2021/12/12 08:45:47;;;;;;;;;9.75;9.75;;;;;9.26;84.46;101765.44;5037724;28;45357;-82
2021/12/12 08:48:16;;;;;;;;;12.00;10.25;;;;;9.95;84.57;101881.41;5036710;28;45601;-83
2021/12/12 08:50:44;;;;;;;;;10.25;8.00;;;;;9.99;84.64;101880.66;5036674;28;45184;-83
2021/12/12 08:53:10;;;;;;;;;11.25;10.50;;;;;9.98;84.06;101881.53;5035218;28;45447;-82
2021/12/12 08:55:43;;;;;;;;;13.00;12.00;;;;;9.51;84.68;101803.88;5036711;28;45512;-82
2021/12/12 08:58:17;;;;;;;;;13.25;9.50;;;;;9.28;84.11;101753.22;5042637;28;45284;-83
2021/12/12 09:00:52;;;;;;;;;11.25;9.25;;;;;9.64;85.43;101822.66;5042405;28;45406;-82
2021/12/12 09:03:40;;;;;;;;;12.75;11.50;;;;;10.07;84.79;101880.88;5042904;28;45398;-89
2021/12/12 09:06:09;;;;;;;;;11.50;10.00;;;;;9.94;84.60;101856.84;5043615;28;45491;-87
2021/12/12 09:09:10;;;;;;;;;15.00;12.75;;;;;10.12;84.65;101893.31;5060381;28;45437;-85
2021/12/12 09:11:50;;;;;;;;;10.75;10.75;;;;;10.14;84.92;101888.97;4998234;28;45485;-84
2021/12/12 09:14:37;;;;;;;;;10.75;10.75;;;;;9.42;85.15;101765.03;4982973;28;45368;-83
2021/12/12 09:17:18;;;;;;;;;7.75;7.75;;;;;10.28;84.72;101898.19;5001213;28;45544;-86
2021/12/12 09:19:52;;;;;;;;;12.25;12.00;;;;;10.35;84.56;101883.44;5000430;28;45411;-83
2021/12/12 09:22:30;;;;;;;;;13.50;13.50;;;;;9.91;83.80;101801.47;4998942;28;45484;-87
2021/12/12 09:25:21;;;;;;;;;12.50;10.00;;;;;10.42;84.70;101895.00;4986284;28;45379;-79
2021/12/12 09:28:05;;;;;;;;;8.25;8.25;;;;;10.01;83.94;101823.69;5002443;28;45519;-78
2021/12/12 09:30:31;;;;;;;;;10.50;10.50;;;;;9.93;84.05;101805.03;5017516;28;45474;-82
2021/12/12 09:33:09;;;;;;;;;10.75;7.75;;;;;10.52;83.72;101900.59;4999471;28;45357;-80
2021/12/12 09:35:54;;;;;;;;;12.50;9.75;;;;;10.54;83.68;101909.44;4998225;28;45352;-81
2021/12/12 09:38:30;;;;;;;;;11.50;9.00;;;;;9.80;84.10;101760.84;4998422;28;45635;-80
2021/12/12 09:41:26;;;;;;;;;9.75;9.75;;;;;10.72;82.99;101897.59;4998410;28;45350;-79
2021/12/12 09:44:36;;;;;;;;;10.75;10.50;;;;;10.71;82.98;101901.06;4991828;28;45524;-78
2021/12/12 09:47:46;;;;;;;;;17.25;13.75;;;;;10.71;83.17;101901.97;4987152;28;45010;-81
2021/12/12 09:53:23;;;;;;;;;13.25;11.00;;;;;10.76;83.16;101909.97;5041072;28;45454;-87
2021/12/12 09:55:49;;;;;;;;;12.00;9.75;;;;;10.78;82.99;101911.78;5042764;28;45522;-79
2021/12/12 09:58:42;;;;;;;;;13.00;13.00;;;;;10.81;83.31;101917.16;5036746;28;45530;-81
2021/12/12 10:01:19;;;;;;;;;10.25;10.25;;;;;10.85;83.59;101907.56;5043653;28;46027;-78
2021/12/12 10:03:57;;;;;;;;;14.75;12.25;;;;;10.94;82.70;101905.16;5041256;28;45621;-79
2021/12/12 10:06:32;;;;;;;;;11.50;11.50;;;;;11.01;83.31;101906.22;5041693;28;45829;-79
2021/12/12 10:09:10;;;;;;;;;13.75;12.50;;;;;11.04;82.76;101907.16;5047873;28;45612;-76
2021/12/12 10:11:53;;;;;;;;;10.25;9.00;;;;;10.49;82.14;101824.09;5049211;28;46112;-84
2021/12/12 10:14:53;;;;;;;;;9.25;9.25;;;;;11.12;82.77;101900.31;5059773;28;45714;-87
2021/12/12 10:17:31;;;;;;;;;10.50;10.50;;;;;11.15;82.62;101910.03;5049245;28;44814;-83
2021/12/12 10:20:34;;;;;;;;;16.00;12.50;;;;;11.27;82.49;101906.84;5038086;28;45304;-76
2021/12/12 10:23:20;;;;;;;;;10.00;10.00;;;;;11.51;82.10;101910.00;5033761;28;45447;-79
2021/12/12 10:25:45;;;;;;;;;12.00;12.00;;;;;11.65;80.58;101902.41;5035944;28;45285;-77
2021/12/12 10:28:17;;;;;;;;;14.75;13.00;;;;;11.68;80.28;101900.72;5032610;28;45525;-76
2021/12/12 10:31:07;;;;;;;;;10.50;10.50;;;;;11.66;80.45;101901.53;5036085;28;45276;-78
2021/12/12 10:33:39;;;;;;;;;15.25;14.00;;;;;11.64;81.12;101903.28;5034375;28;45533;-77
2021/12/12 10:36:13;;;;;;;;;16.00;15.25;;;;;11.65;80.95;101900.66;5035336;28;45232;-77
2021/12/12 10:39:02;;;;;;;;;11.00;11.00;;;;;11.61;80.31;101877.69;5033894;28;46782;-75
2021/12/12 10:41:40;;;;;;;;;14.75;14.75;;;;;11.76;79.97;101902.63;5032858;28;45466;-76
2021/12/12 10:44:24;;;;;;;;;18.00;15.00;;;;;11.84;80.02;101914.28;5033424;28;46015;-77
2021/12/12 10:47:04;;;;;;;;;13.75;13.50;;;;;11.96;79.70;101915.41;5032160;28;45575;-75
2021/12/12 10:49:30;;;;;;;;;19.00;17.50;;;;;12.13;78.95;101912.22;5031860;28;45693;-77
2021/12/12 10:52:03;;;;;;;;;14.25;14.25;;;;;12.16;78.17;101902.59;5033550;28;45476;-74
2021/12/12 10:54:51;;;;;;;;;19.25;15.25;;;;;12.05;78.69;101876.84;5032819;28;46841;-77
2021/12/12 10:57:23;;;;;;;;;16.25;16.25;;;;;12.16;77.79;101885.88;5026795;28;45395;-77
2021/12/12 10:59:56;;;;;;;;;16.00;13.00;;;;;12.24;77.86;101914.22;5032416;28;45469;-77
2021/12/12 11:02:30;;;;;;;;;16.25;16.00;;;;;12.13;78.52;101886.72;5034182;28;45516;-76
2021/12/12 11:05:13;;;;;;;;;16.50;15.00;;;;;12.28;77.97;101912.50;5037523;28;46377;-78
2021/12/12 11:07:48;;;;;;;;;14.75;14.75;;;;;12.25;77.35;101908.06;5035894;28;45460;-78
2021/12/12 11:10:28;;;;;;;;;16.50;16.50;;;;;12.27;78.07;101910.72;5035938;28;45405;-81
2021/12/12 11:13:01;;;;;;;;;17.50;15.00;;;;;12.27;77.65;101913.38;5038524;28;45378;-77
2021/12/12 11:15:37;;;;;;;;;15.50;15.00;;;;;12.04;77.67;101862.75;5032852;28;48069;-77
2021/12/12 11:18:08;;;;;;;;;17.50;17.50;;;;;12.15;77.68;101900.84;5039298;28;45418;-78
2021/12/12 11:20:41;;;;;;;;;20.00;19.25;;;;;12.15;78.66;101905.22;5040898;28;45538;-80
2021/12/12 11:23:19;;;;;;;;;17.75;16.25;;;;;12.17;77.88;101908.78;5037865;28;45599;-74
2021/12/12 11:25:50;;;;;;;;;17.75;15.25;;;;;12.06;78.33;101905.03;5042699;28;45618;-78
2021/12/12 11:28:23;;;;;;;;;15.00;15.00;;;;;11.95;78.69;101899.53;5045303;28;45324;-77
2021/12/12 11:30:57;;;;;;;;;17.00;17.00;;;;;12.01;78.02;101906.72;5046958;28;45354;-75
2021/12/12 11:33:27;;;;;;;;;15.50;14.25;;;;;11.54;78.52;101827.38;5044032;28;45452;-77
2021/12/12 11:35:55;;;;;;;;;15.00;14.75;;;;;12.03;78.38;101913.81;5047888;28;46192;-76
2021/12/12 11:38:48;;;;;;;;;17.75;15.50;;;;;12.02;79.16;101913.78;5046683;28;45353;-75
2021/12/12 11:41:25;;;;;;;;;24.75;22.00;;;;;12.02;78.90;101905.84;5040706;28;45493;-76
2021/12/12 11:44:20;;;;;;;;;19.00;17.25;;;;;12.05;78.52;101913.81;5056733;28;45433;-75
2021/12/12 11:47:52;;;;;;;;;17.75;17.75;;;;;12.14;79.23;101914.91;5047919;28;45559;-74
2021/12/12 11:50:42;;;;;;;;;19.25;18.25;;;;;11.94;78.62;101856.41;4985765;28;45386;-75
2021/12/12 11:53:34;;;;;;;;;17.75;14.50;;;;;12.22;78.71;101904.50;4993507;28;45467;-76
2021/12/12 11:56:19;;;;;;;;;16.25;14.25;;;;;12.10;79.40;101897.22;4995352;28;45686;-76
2021/12/12 11:58:56;;;;;;;;;17.00;16.00;;;;;12.12;79.21;101894.59;4996245;28;46253;-77
2021/12/12 12:01:31;;;;;;;;;18.00;15.75;;;;;12.23;78.52;101903.63;4992829;28;45396;-78
2021/12/12 12:04:03;;;;;;;;;15.50;15.50;;;;;12.29;78.91;101906.41;4994838;28;45526;-79